Terminal Aerodrome Forecast
Issued by NWS Wichita, KS

Home | Current Version | Previous Version | Graphics & Text | Print | Product List | Glossary On
Versions: 1 2 3 4 5 6 7 8 9 10 11 12 13 14 15 16 17 18 19 20 21 22
000
FTUS43 KICT 251929 AAB
TAFICT
TAF AMD
KICT 251929Z 2519/2618 24010G20KT P6SM SCT200
     FM252100 27015G25KT P6SM BKN200
     FM252300 36020G30KT P6SM OVC050
     FM261200 36018G25KT P6SM BKN250=

USA.gov is the U.S. government's official web portal to all federal, state and local government web resources and services.